Time;durP1;ratioP1;P1;durP2;ratioP2;P2;SDS_P1;SDS_P2;PMS_P1;PMS_P2;Temp;Humidity;BMP_temperature;BMP_pressure;BME280_temperature;BME280_humidity;BME280_pressure;Samples;Min_cycle;Max_cycle;Signal;HPM_P1;HPM_P2
2023/12/22 00:01:38;;;;;;;40.65;6.40;;;;;;;-144.74;100.00;63161.41;4962043;28;20019;-72
2023/12/22 00:04:05;;;;;;;42.20;7.70;;;;;;;-144.74;100.00;63161.41;4961114;28;20058;-73
2023/12/22 00:06:31;;;;;;;48.78;7.82;;;;;;;-144.74;100.00;63161.41;4957483;28;20043;-73
2023/12/22 00:08:56;;;;;;;62.70;8.85;;;;;;;-144.74;100.00;63161.41;4957917;28;20140;-73
2023/12/22 00:11:21;;;;;;;57.03;7.43;;;;;;;-144.74;100.00;63161.41;4962736;28;20094;-72
2023/12/22 00:13:47;;;;;;;48.17;8.85;;;;;;;-144.74;100.00;63161.41;4965995;28;20050;-72
2023/12/22 00:16:12;;;;;;;60.67;8.63;;;;;;;-144.74;100.00;63161.41;4963130;28;20038;-72
2023/12/22 00:18:38;;;;;;;49.03;8.32;;;;;;;-144.74;100.00;63161.41;4961735;28;20039;-72
2023/12/22 00:21:10;;;;;;;53.65;9.55;;;;;;;-144.74;100.00;63161.41;4952032;28;20035;-72
2023/12/22 00:23:36;;;;;;;59.15;7.95;;;;;;;-144.74;100.00;63161.41;4966439;28;20023;-72
2023/12/22 00:26:01;;;;;;;67.03;10.02;;;;;;;-144.74;100.00;63161.41;4957928;28;20078;-72
2023/12/22 00:28:27;;;;;;;54.88;7.80;;;;;;;-144.74;100.00;63161.41;4956385;28;20031;-72
2023/12/22 00:30:52;;;;;;;49.10;8.35;;;;;;;-144.74;100.00;63161.41;4961967;28;20117;-72
2023/12/22 00:33:18;;;;;;;43.05;8.82;;;;;;;-144.74;100.00;63161.41;4960629;28;20505;-72
2023/12/22 00:35:43;;;;;;;50.58;8.82;;;;;;;-144.74;100.00;63161.41;4960443;28;20038;-72
2023/12/22 00:38:10;;;;;;;55.00;8.95;;;;;;;-144.74;100.00;63161.41;4962525;28;20026;-72
2023/12/22 00:40:35;;;;;;;58.53;7.18;;;;;;;-144.74;100.00;63161.41;4963870;28;20443;-72
2023/12/22 00:43:01;;;;;;;65.18;10.10;;;;;;;-144.74;100.00;63161.41;4966444;28;20075;-72
2023/12/22 00:45:29;;;;;;;68.43;8.50;;;;;;;-144.74;100.00;63161.41;4959395;28;20042;-72
2023/12/22 00:47:54;;;;;;;48.95;7.38;;;;;;;-144.74;100.00;63161.41;4966843;28;20034;-72
2023/12/22 00:50:20;;;;;;;49.00;6.57;;;;;;;-144.74;100.00;63161.41;4957252;28;20043;-72
2023/12/22 00:52:45;;;;;;;54.60;6.30;;;;;;;-144.74;100.00;63161.41;4969063;28;20064;-72
2023/12/22 00:55:10;;;;;;;57.58;7.50;;;;;;;-144.74;100.00;63161.41;4965976;28;20031;-72
2023/12/22 00:57:36;;;;;;;38.95;6.70;;;;;;;-144.74;100.00;63161.41;4969478;28;20037;-72
2023/12/22 01:00:01;;;;;;;36.95;7.22;;;;;;;-144.74;100.00;63161.41;4966675;28;20108;-73
2023/12/22 01:02:27;;;;;;;50.15;7.63;;;;;;;-144.74;100.00;63161.41;4968705;28;20066;-70
2023/12/22 01:04:52;;;;;;;54.83;9.10;;;;;;;-144.74;100.00;63161.41;4965595;28;20034;-72
2023/12/22 01:07:18;;;;;;;58.58;8.63;;;;;;;-144.74;100.00;63161.41;4960783;28;20082;-71
2023/12/22 01:09:44;;;;;;;57.85;9.50;;;;;;;-144.74;100.00;63161.41;4961622;28;20126;-73
2023/12/22 01:12:10;;;;;;;66.40;9.27;;;;;;;-144.74;100.00;63161.41;4962772;28;20113;-72
2023/12/22 01:14:36;;;;;;;65.97;8.70;;;;;;;-144.74;100.00;63161.41;4954641;28;20118;-73
2023/12/22 01:17:01;;;;;;;72.25;9.45;;;;;;;-144.74;100.00;63161.41;4968091;28;20155;-73
2023/12/22 01:19:26;;;;;;;62.70;8.60;;;;;;;-144.74;100.00;63161.41;4961081;28;20054;-73
2023/12/22 01:21:52;;;;;;;55.50;7.10;;;;;;;-144.74;100.00;63161.41;4970469;28;20011;-71
2023/12/22 01:24:17;;;;;;;47.67;7.43;;;;;;;-144.74;100.00;63161.41;4968022;28;20401;-73
2023/12/22 01:26:43;;;;;;;38.17;6.60;;;;;;;-144.74;100.00;63161.41;4966644;28;20076;-71
2023/12/22 01:29:08;;;;;;;38.08;6.65;;;;;;;-144.74;100.00;63161.41;4966459;28;20105;-71
2023/12/22 01:31:34;;;;;;;27.58;5.10;;;;;;;-144.74;100.00;63161.41;4965333;28;20030;-70
2023/12/22 01:33:59;;;;;;;38.40;6.57;;;;;;;-144.74;100.00;63161.41;4967346;28;20250;-71
2023/12/22 01:36:25;;;;;;;26.92;4.22;;;;;;;-144.74;100.00;63161.41;4968507;28;20031;-72
2023/12/22 01:38:50;;;;;;;43.10;5.88;;;;;;;-144.74;100.00;63161.41;4959908;28;20030;-73
2023/12/22 01:41:16;;;;;;;38.95;4.80;;;;;;;-144.74;100.00;63161.41;4962463;28;20042;-74
2023/12/22 01:43:41;;;;;;;31.70;4.55;;;;;;;-144.74;100.00;63161.41;4969650;28;20105;-75
2023/12/22 01:46:09;;;;;;;24.67;3.60;;;;;;;-144.74;100.00;63161.41;4962319;28;20035;-75
2023/12/22 01:48:36;;;;;;;23.58;3.78;;;;;;;-144.74;100.00;63161.41;4962099;28;20018;-75
2023/12/22 01:51:03;;;;;;;11.50;2.63;;;;;;;-144.74;100.00;63161.41;4955207;28;20028;-75
2023/12/22 01:53:29;;;;;;;22.50;2.85;;;;;;;-144.74;100.00;63161.41;4959139;28;20030;-75
2023/12/22 01:55:55;;;;;;;21.63;2.75;;;;;;;-144.74;100.00;63161.41;4961901;28;20049;-75
2023/12/22 01:58:23;;;;;;;19.90;3.08;;;;;;;-144.74;100.00;63161.41;4963837;28;20061;-75
2023/12/22 02:00:49;;;;;;;14.45;2.40;;;;;;;-144.74;100.00;63161.41;4959998;28;20039;-75
2023/12/22 02:03:16;;;;;;;17.73;2.60;;;;;;;-144.74;100.00;63161.41;4956010;28;20074;-76
2023/12/22 02:05:45;;;;;;;9.70;2.20;;;;;;;-144.74;100.00;63161.41;4953716;28;20031;-75
2023/12/22 02:08:11;;;;;;;18.10;1.60;;;;;;;-144.74;100.00;63161.41;4964890;28;20022;-75
2023/12/22 02:10:37;;;;;;;15.95;2.20;;;;;;;-144.74;100.00;63161.41;4963126;28;20050;-75
2023/12/22 02:13:04;;;;;;;16.00;1.98;;;;;;;-144.74;100.00;63161.41;4957673;28;20023;-75
2023/12/22 02:15:29;;;;;;;18.30;2.65;;;;;;;-144.74;100.00;63161.41;4959663;28;20039;-74
2023/12/22 02:18:01;;;;;;;15.25;2.53;;;;;;;-144.74;100.00;63161.41;4971692;28;20089;-74
2023/12/22 02:20:27;;;;;;;20.55;2.65;;;;;;;-144.74;100.00;63161.41;4962159;28;20031;-75
2023/12/22 02:22:53;;;;;;;21.67;2.10;;;;;;;-144.74;100.00;63161.41;4954720;28;20026;-74
2023/12/22 02:25:19;;;;;;;21.27;2.85;;;;;;;-144.74;100.00;63161.41;4961513;28;20114;-74
2023/12/22 02:27:57;;;;;;;20.67;3.50;;;;;;;-144.74;100.00;63161.41;4957323;28;20070;-73
2023/12/22 02:30:47;;;;;;;16.45;3.00;;;;;;;-144.74;100.00;63161.41;4962776;28;20106;-73
2023/12/22 02:33:15;;;;;;;27.85;3.13;;;;;;;-144.74;100.00;63161.41;4962463;28;20031;-72
2023/12/22 02:35:42;;;;;;;34.13;3.17;;;;;;;-144.74;100.00;63161.41;4957024;28;20039;-71
2023/12/22 02:38:08;;;;;;;22.85;3.78;;;;;;;-144.74;100.00;63161.41;4963803;28;20494;-71
2023/12/22 02:40:38;;;;;;;22.60;3.67;;;;;;;-144.74;100.00;63161.41;4963938;28;20058;-72
2023/12/22 02:43:07;;;;;;;30.20;4.82;;;;;;;-144.74;100.00;63161.41;4961314;28;20015;-72
2023/12/22 02:45:32;;;;;;;25.48;3.53;;;;;;;-144.74;100.00;63161.41;4955998;28;20115;-71
2023/12/22 02:47:58;;;;;;;41.97;4.47;;;;;;;-144.74;100.00;63161.41;4959408;28;20105;-73
2023/12/22 02:50:23;;;;;;;35.72;4.40;;;;;;;-144.74;100.00;63161.41;4961497;28;20031;-75
2023/12/22 02:52:49;;;;;;;44.08;4.40;;;;;;;-144.74;100.00;63161.41;4972564;28;20056;-76
2023/12/22 02:55:15;;;;;;;22.73;4.82;;;;;;;-144.74;100.00;63161.41;4959947;28;20026;-75
2023/12/22 02:57:40;;;;;;;28.08;3.97;;;;;;;-144.74;100.00;63161.41;4971439;28;20026;-75
2023/12/22 03:00:07;;;;;;;26.20;4.68;;;;;;;-144.74;100.00;63161.41;4953935;28;20561;-74
2023/12/22 03:02:32;;;;;;;43.45;5.13;;;;;;;-144.74;100.00;63161.41;4965114;28;20023;-75
2023/12/22 03:04:57;;;;;;;32.58;4.75;;;;;;;-144.74;100.00;63161.41;4955553;28;20031;-75
2023/12/22 03:07:23;;;;;;;25.73;2.70;;;;;;;-144.74;100.00;63161.41;4957217;28;20023;-75
2023/12/22 03:09:48;;;;;;;17.25;3.00;;;;;;;-144.74;100.00;63161.41;4962753;28;20402;-75
2023/12/22 03:12:14;;;;;;;11.27;2.55;;;;;;;-144.74;100.00;63161.41;4960558;28;20023;-75
2023/12/22 03:14:39;;;;;;;11.70;2.70;;;;;;;-144.74;100.00;63161.41;4964400;28;20126;-76
2023/12/22 03:17:06;;;;;;;13.60;1.98;;;;;;;-144.74;100.00;63161.41;4963600;28;20023;-74
2023/12/22 03:19:32;;;;;;;18.35;2.58;;;;;;;-144.74;100.00;63161.41;4959047;28;20075;-74
2023/12/22 03:21:58;;;;;;;13.20;1.95;;;;;;;-144.74;100.00;63161.41;4959264;28;20047;-74
2023/12/22 03:24:24;;;;;;;11.82;1.65;;;;;;;-144.74;100.00;63161.41;4955903;28;20039;-74
2023/12/22 03:26:50;;;;;;;22.27;1.92;;;;;;;-144.74;100.00;63161.41;4961668;28;20031;-74
2023/12/22 03:29:16;;;;;;;13.15;1.10;;;;;;;-144.74;100.00;63161.41;4955549;28;20235;-73
2023/12/22 03:31:41;;;;;;;14.07;2.13;;;;;;;-144.74;100.00;63161.41;4965633;28;20568;-73
2023/12/22 03:34:07;;;;;;;12.80;2.13;;;;;;;-144.74;100.00;63161.41;4965779;28;20019;-73
2023/12/22 03:36:32;;;;;;;13.85;1.85;;;;;;;-144.74;100.00;63161.41;4955754;28;20101;-73
2023/12/22 03:38:58;;;;;;;14.75;1.33;;;;;;;-144.74;100.00;63161.41;4961608;28;20055;-72
2023/12/22 03:41:23;;;;;;;14.25;1.85;;;;;;;-144.74;100.00;63161.41;4957870;28;20035;-73
2023/12/22 03:43:49;;;;;;;8.40;1.23;;;;;;;-144.74;100.00;63161.41;4962262;28;20043;-73
2023/12/22 03:46:14;;;;;;;15.35;2.05;;;;;;;-144.74;100.00;63161.41;4964272;28;20034;-73
2023/12/22 03:48:39;;;;;;;15.45;1.50;;;;;;;-144.74;100.00;63161.41;4962599;28;20699;-73
2023/12/22 03:51:05;;;;;;;9.00;1.45;;;;;;;-144.74;100.00;63161.41;4960171;28;20049;-73
2023/12/22 03:53:30;;;;;;;7.18;1.90;;;;;;;-144.74;100.00;63161.41;4957957;28;20122;-73
2023/12/22 03:55:56;;;;;;;16.35;1.95;;;;;;;-144.74;100.00;63161.41;4956944;28;20035;-73
2023/12/22 03:58:21;;;;;;;20.65;2.45;;;;;;;-144.74;100.00;63161.41;4957282;28;20034;-73
2023/12/22 04:00:47;;;;;;;15.18;1.77;;;;;;;-144.74;100.00;63161.41;4962320;28;20074;-73
2023/12/22 04:03:13;;;;;;;12.48;1.52;;;;;;;-144.74;100.00;63161.41;4962797;28;20022;-73
2023/12/22 04:05:38;;;;;;;17.80;2.13;;;;;;;-144.74;100.00;63161.41;4959607;28;20118;-73
2023/12/22 04:08:04;;;;;;;19.45;3.50;;;;;;;-144.74;100.00;63161.41;4957367;28;20019;-73
2023/12/22 04:10:29;;;;;;;27.38;3.45;;;;;;;-144.74;100.00;63161.41;4956853;28;20139;-73
2023/12/22 04:12:55;;;;;;;29.33;3.95;;;;;;;-144.74;100.00;63161.41;4957334;28;20199;-73
2023/12/22 04:15:20;;;;;;;26.73;4.28;;;;;;;-144.74;100.00;63161.41;4956920;28;20041;-73
2023/12/22 04:17:45;;;;;;;24.10;3.83;;;;;;;-144.74;100.00;63161.41;4961966;28;20110;-73
2023/12/22 04:20:12;;;;;;;26.42;3.63;;;;;;;-144.74;100.00;63161.41;4962052;28;20058;-73
2023/12/22 04:22:37;;;;;;;30.65;3.92;;;;;;;-144.74;100.00;63161.41;4962341;28;20415;-73
2023/12/22 04:25:03;;;;;;;27.85;3.88;;;;;;;-144.74;100.00;63161.41;4969994;28;20062;-73
2023/12/22 04:27:28;;;;;;;35.85;4.32;;;;;;;-144.74;100.00;63161.41;4960606;28;20027;-73
2023/12/22 04:29:54;;;;;;;37.45;4.90;;;;;;;-144.74;100.00;63161.41;4961981;28;20061;-73
2023/12/22 04:32:19;;;;;;;34.30;5.80;;;;;;;-144.74;100.00;63161.41;4961643;28;20043;-73
2023/12/22 04:34:44;;;;;;;34.88;5.70;;;;;;;-144.74;100.00;63161.41;4966380;28;20042;-73
2023/12/22 04:37:10;;;;;;;37.45;4.88;;;;;;;-144.74;100.00;63161.41;4967632;28;20225;-73
2023/12/22 04:39:35;;;;;;;36.65;4.55;;;;;;;-144.74;100.00;63161.41;4963928;28;20102;-73
2023/12/22 04:42:00;;;;;;;33.33;3.70;;;;;;;-144.74;100.00;63161.41;4963207;28;20034;-74
2023/12/22 04:44:26;;;;;;;36.45;4.13;;;;;;;-144.74;100.00;63161.41;4966306;28;20035;-73
2023/12/22 04:46:51;;;;;;;25.38;4.75;;;;;;;-144.74;100.00;63161.41;4962720;28;20078;-73
2023/12/22 04:49:17;;;;;;;32.05;3.47;;;;;;;-144.74;100.00;63161.41;4959159;28;20074;-74
2023/12/22 04:51:42;;;;;;;22.30;3.17;;;;;;;-144.74;100.00;63161.41;4963590;28;20027;-73
2023/12/22 04:54:08;;;;;;;39.33;3.90;;;;;;;-144.74;100.00;63161.41;4963463;28;20059;-74
2023/12/22 04:56:33;;;;;;;27.38;4.65;;;;;;;-144.74;100.00;63161.41;4962571;28;20023;-76
2023/12/22 04:58:58;;;;;;;33.17;3.65;;;;;;;-144.74;100.00;63161.41;4963235;28;20031;-78
2023/12/22 05:01:24;;;;;;;33.85;4.55;;;;;;;-144.74;100.00;63161.41;4966830;28;20043;-77
2023/12/22 05:03:49;;;;;;;36.13;5.40;;;;;;;-144.74;100.00;63161.41;4961653;28;20031;-77
2023/12/22 05:06:14;;;;;;;39.08;5.25;;;;;;;-144.74;100.00;63161.41;4964318;28;20110;-77
2023/12/22 05:08:40;;;;;;;32.03;4.30;;;;;;;-144.74;100.00;63161.41;4964889;28;20041;-77
2023/12/22 05:11:05;;;;;;;32.22;3.45;;;;;;;-144.74;100.00;63161.41;4970718;28;20112;-77
2023/12/22 05:13:31;;;;;;;36.55;3.30;;;;;;;-144.74;100.00;63161.41;4959342;28;20027;-76
2023/12/22 05:15:56;;;;;;;34.88;4.25;;;;;;;-144.74;100.00;63161.41;4965488;28;20054;-77
2023/12/22 05:18:22;;;;;;;32.22;4.90;;;;;;;-144.74;100.00;63161.41;4961142;28;20182;-76
2023/12/22 05:20:47;;;;;;;32.67;4.78;;;;;;;-144.74;100.00;63161.41;4957564;28;20044;-76
2023/12/22 05:23:19;;;;;;;26.20;3.70;;;;;;;-144.74;100.00;63161.41;4967198;28;20122;-78
2023/12/22 05:25:44;;;;;;;26.02;3.75;;;;;;;-144.74;100.00;63161.41;4963371;28;20110;-77
2023/12/22 05:28:10;;;;;;;28.45;4.63;;;;;;;-144.74;100.00;63161.41;4966791;28;20022;-77
2023/12/22 05:30:35;;;;;;;23.60;3.85;;;;;;;-144.74;100.00;63161.41;4965958;28;20045;-77
2023/12/22 05:33:01;;;;;;;39.72;5.55;;;;;;;-144.74;100.00;63161.41;4965349;28;20034;-76
2023/12/22 05:35:26;;;;;;;40.05;4.97;;;;;;;-144.74;100.00;63161.41;4961041;28;20065;-77
2023/12/22 05:37:51;;;;;;;30.73;4.07;;;;;;;-144.74;100.00;63161.41;4966345;28;20478;-77
2023/12/22 05:40:17;;;;;;;32.25;4.78;;;;;;;-144.74;100.00;63161.41;4966038;28;20047;-77
2023/12/22 05:42:42;;;;;;;34.22;4.05;;;;;;;-144.74;100.00;63161.41;4957456;28;20035;-77
2023/12/22 05:45:11;;;;;;;30.90;4.72;;;;;;;-144.74;100.00;63161.41;4962452;28;20054;-77
2023/12/22 05:47:37;;;;;;;32.40;3.95;;;;;;;-144.74;100.00;63161.41;4970333;28;20106;-78
2023/12/22 05:50:04;;;;;;;37.88;4.88;;;;;;;-144.74;100.00;63161.41;4973939;28;20049;-79
2023/12/22 05:52:30;;;;;;;24.63;4.25;;;;;;;-144.74;100.00;63161.41;4976739;28;20036;-80
2023/12/22 05:54:55;;;;;;;42.80;5.93;;;;;;;-144.74;100.00;63161.41;4978492;28;20066;-80
2023/12/22 05:57:20;;;;;;;28.75;5.35;;;;;;;-144.74;100.00;63161.41;4978179;28;20379;-80
2023/12/22 05:59:46;;;;;;;26.30;3.85;;;;;;;-144.74;100.00;63161.41;4961371;28;20046;-76
2023/12/22 06:02:13;;;;;;;30.08;5.13;;;;;;;-144.74;100.00;63161.41;4964100;28;20027;-75
2023/12/22 06:04:38;;;;;;;27.58;4.03;;;;;;;-144.74;100.00;63161.41;4960791;28;20039;-75
2023/12/22 06:07:04;;;;;;;31.50;3.70;;;;;;;-144.74;100.00;63161.41;4966545;28;20030;-75
2023/12/22 06:09:30;;;;;;;17.33;3.33;;;;;;;-144.74;100.00;63161.41;4965012;28;20051;-75
2023/12/22 06:11:55;;;;;;;24.58;3.88;;;;;;;-144.74;100.00;63161.41;4963257;28;20027;-76
2023/12/22 06:14:21;;;;;;;25.75;2.72;;;;;;;-144.74;100.00;63161.41;4963588;28;20035;-76
2023/12/22 06:16:46;;;;;;;27.52;3.28;;;;;;;-144.74;100.00;63161.41;4966814;28;20022;-76
2023/12/22 06:19:12;;;;;;;27.50;2.90;;;;;;;-144.74;100.00;63161.41;4969922;28;20018;-75
2023/12/22 06:21:38;;;;;;;23.65;3.85;;;;;;;-144.74;100.00;63161.41;4967621;28;20109;-76
2023/12/22 06:24:04;;;;;;;27.88;3.47;;;;;;;-144.74;100.00;63161.41;4965613;28;20053;-75
2023/12/22 06:26:29;;;;;;;24.70;3.60;;;;;;;-144.74;100.00;63161.41;4965108;28;20118;-75
2023/12/22 06:28:56;;;;;;;29.67;4.05;;;;;;;-144.74;100.00;63161.41;4965266;28;20023;-77
2023/12/22 06:31:22;;;;;;;23.05;2.83;;;;;;;-144.74;100.00;63161.41;4965381;28;20086;-76
2023/12/22 06:33:48;;;;;;;27.70;3.47;;;;;;;-144.74;100.00;63161.41;4964605;28;20046;-76
2023/12/22 06:36:21;;;;;;;35.33;3.25;;;;;;;-144.74;100.00;63161.41;4961840;28;20023;-76
2023/12/22 06:38:51;;;;;;;30.55;4.55;;;;;;;-144.74;100.00;63161.41;4958923;28;20030;-76
2023/12/22 06:41:30;;;;;;;35.03;4.80;;;;;;;-144.74;100.00;63161.41;4958840;28;20031;-76
2023/12/22 06:43:57;;;;;;;35.20;4.32;;;;;;;-144.74;100.00;63161.41;4959656;28;20041;-76
2023/12/22 06:46:27;;;;;;;32.47;3.97;;;;;;;-144.74;100.00;63161.41;4959345;28;20039;-76
2023/12/22 06:48:53;;;;;;;31.02;5.35;;;;;;;-144.74;100.00;63161.41;4961175;28;20085;-76
2023/12/22 06:51:24;;;;;;;31.55;3.95;;;;;;;-144.74;100.00;63161.41;4958203;28;20038;-76
2023/12/22 06:53:50;;;;;;;22.88;5.45;;;;;;;-144.74;100.00;63161.41;4961084;28;20046;-76
2023/12/22 06:56:26;;;;;;;28.20;5.18;;;;;;;-144.74;100.00;63161.41;4964152;28;20047;-76
2023/12/22 06:58:57;;;;;;;43.05;5.38;;;;;;;-144.74;100.00;63161.41;4959013;28;20030;-76
2023/12/22 07:01:29;;;;;;;49.13;4.90;;;;;;;-144.74;100.00;63161.41;4956647;28;20054;-75
2023/12/22 07:03:54;;;;;;;30.73;4.53;;;;;;;-144.74;100.00;63161.41;4963003;28;20031;-75
2023/12/22 07:06:21;;;;;;;42.97;7.05;;;;;;;-144.74;100.00;63161.41;4958261;28;20186;-76
2023/12/22 07:09:11;;;;;;;31.92;5.57;;;;;;;-144.74;100.00;63161.41;4965713;28;20109;-76
2023/12/22 07:11:46;;;;;;;38.35;4.80;;;;;;;-144.74;100.00;63161.41;4961924;28;20059;-75
2023/12/22 07:14:12;;;;;;;43.70;5.22;;;;;;;-144.74;100.00;63161.41;4953873;28;20027;-75
2023/12/22 07:16:37;;;;;;;47.33;6.20;;;;;;;-144.74;100.00;63161.41;4953215;28;20067;-75
2023/12/22 07:19:05;;;;;;;52.10;9.38;;;;;;;-144.74;100.00;63161.41;4962898;28;20054;-75
2023/12/22 07:21:30;;;;;;;61.28;9.90;;;;;;;-144.74;100.00;63161.41;4953110;28;20023;-75
2023/12/22 07:23:57;;;;;;;67.25;8.30;;;;;;;-144.74;100.00;63161.41;4961543;28;20498;-75
2023/12/22 07:26:24;;;;;;;50.22;8.45;;;;;;;-144.74;100.00;63161.41;4962471;28;20062;-75
2023/12/22 07:28:49;;;;;;;50.47;7.82;;;;;;;-144.74;100.00;63161.41;4959658;28;20131;-75
2023/12/22 07:31:15;;;;;;;62.25;9.48;;;;;;;-144.74;100.00;63161.41;4959383;28;20137;-75
2023/12/22 07:33:40;;;;;;;58.13;8.13;;;;;;;-144.74;100.00;63161.41;4962675;28;20027;-75
2023/12/22 07:36:06;;;;;;;56.03;8.18;;;;;;;-144.74;100.00;63161.41;4956521;28;20109;-75
2023/12/22 07:38:32;;;;;;;59.38;6.53;;;;;;;-144.74;100.00;63161.41;4954491;28;20038;-75
2023/12/22 07:40:58;;;;;;;49.88;7.07;;;;;;;-144.74;100.00;63161.41;4961397;28;20039;-76
2023/12/22 07:43:24;;;;;;;54.80;8.13;;;;;;;-144.74;100.00;63161.41;4962758;28;20131;-75
2023/12/22 07:45:50;;;;;;;60.33;8.88;;;;;;;-144.74;100.00;63161.41;4963044;28;20086;-75
2023/12/22 07:48:16;;;;;;;55.65;9.73;;;;;;;-144.74;100.00;63161.41;4960003;28;20026;-75
2023/12/22 07:50:42;;;;;;;66.43;8.00;;;;;;;-144.74;100.00;63161.41;4958677;28;20118;-75
2023/12/22 07:53:08;;;;;;;51.60;7.40;;;;;;;-144.74;100.00;63161.41;4961403;28;20019;-72
2023/12/22 07:55:34;;;;;;;57.40;8.50;;;;;;;-144.74;100.00;63161.41;4958717;28;20046;-71
2023/12/22 07:57:59;;;;;;;60.60;9.38;;;;;;;-144.74;100.00;63161.41;4957647;28;20038;-71
2023/12/22 08:00:25;;;;;;;68.50;8.20;;;;;;;-144.74;100.00;63161.41;4954679;28;20055;-71
2023/12/22 08:02:52;;;;;;;60.28;7.40;;;;;;;-144.74;100.00;63161.41;4955880;28;20029;-71
2023/12/22 08:05:18;;;;;;;50.92;8.57;;;;;;;-144.74;100.00;63161.41;4954499;28;20034;-71
2023/12/22 08:07:44;;;;;;;48.38;6.95;;;;;;;-144.74;100.00;63161.41;4960812;28;20031;-71
2023/12/22 08:10:09;;;;;;;65.10;6.78;;;;;;;-144.74;100.00;63161.41;4956689;28;20102;-71
2023/12/22 08:12:35;;;;;;;34.92;5.30;;;;;;;-144.74;100.00;63161.41;4964384;28;20402;-71
2023/12/22 08:15:01;;;;;;;49.83;6.40;;;;;;;-144.74;100.00;63161.41;4954795;28;20113;-71
2023/12/22 08:17:27;;;;;;;39.75;5.95;;;;;;;-144.74;100.00;63161.41;4962277;28;20037;-74
2023/12/22 08:19:52;;;;;;;36.55;5.68;;;;;;;-144.74;100.00;63161.41;4955508;28;20051;-73
2023/12/22 08:22:18;;;;;;;50.15;6.90;;;;;;;-144.74;100.00;63161.41;4964395;28;20027;-72
2023/12/22 08:24:43;;;;;;;30.10;4.47;;;;;;;-144.74;100.00;63161.41;4959618;28;20046;-72
2023/12/22 08:27:09;;;;;;;35.65;5.65;;;;;;;-144.74;100.00;63161.41;4964789;28;20051;-72
2023/12/22 08:29:34;;;;;;;34.58;4.47;;;;;;;-144.74;100.00;63161.41;4953945;28;20040;-72
2023/12/22 08:32:00;;;;;;;23.30;4.25;;;;;;;-144.74;100.00;63161.41;4956356;28;20059;-72
2023/12/22 08:34:26;;;;;;;38.65;5.38;;;;;;;-144.74;100.00;63161.41;4961494;28;20035;-72
2023/12/22 08:36:52;;;;;;;43.92;4.78;;;;;;;-144.74;100.00;63161.41;4963942;28;20065;-72
2023/12/22 08:39:17;;;;;;;43.42;5.70;;;;;;;-144.74;100.00;63161.41;4958088;28;20050;-73
2023/12/22 08:41:43;;;;;;;32.97;5.28;;;;;;;-144.74;100.00;63161.41;4958773;28;20047;-73
2023/12/22 08:44:08;;;;;;;32.90;5.68;;;;;;;-144.74;100.00;63161.41;4955938;28;20015;-73
2023/12/22 08:46:34;;;;;;;47.10;5.93;;;;;;;-144.74;100.00;63161.41;4965320;28;20078;-72
2023/12/22 08:48:59;;;;;;;41.78;5.70;;;;;;;-144.74;100.00;63161.41;4957833;28;20027;-72
2023/12/22 08:51:26;;;;;;;37.67;6.07;;;;;;;-144.74;100.00;63161.41;4961060;28;20506;-72
2023/12/22 08:53:54;;;;;;;35.88;5.13;;;;;;;-144.74;100.00;63161.41;4953750;28;20066;-73
2023/12/22 08:56:21;;;;;;;35.40;4.90;;;;;;;-144.74;100.00;63161.41;4964087;28;20035;-71
2023/12/22 08:58:46;;;;;;;43.75;6.95;;;;;;;-144.74;100.00;63161.41;4958415;28;20037;-71
2023/12/22 09:01:16;;;;;;;36.25;6.22;;;;;;;-144.74;100.00;63161.41;4963838;28;20102;-72
2023/12/22 09:03:45;;;;;;;29.65;3.92;;;;;;;-144.74;100.00;63161.41;4960195;28;20029;-72
2023/12/22 09:06:18;;;;;;;22.92;4.65;;;;;;;-144.74;100.00;63161.41;4966523;28;20031;-71
2023/12/22 09:08:44;;;;;;;32.53;4.82;;;;;;;-144.74;100.00;63161.41;4962482;28;20042;-72
2023/12/22 09:11:15;;;;;;;41.67;4.25;;;;;;;-144.74;100.00;63161.41;4964671;28;20039;-71
2023/12/22 09:13:41;;;;;;;20.88;3.67;;;;;;;-144.74;100.00;63161.41;4963182;28;20102;-71
2023/12/22 09:16:07;;;;;;;22.80;3.15;;;;;;;-144.74;100.00;63161.41;4964465;28;20041;-72
2023/12/22 09:18:33;;;;;;;21.67;4.55;;;;;;;-144.74;100.00;63161.41;4965452;28;20399;-72
2023/12/22 09:20:59;;;;;;;16.85;2.42;;;;;;;-144.74;100.00;63161.41;4962252;28;20106;-70
2023/12/22 09:23:24;;;;;;;26.95;3.80;;;;;;;-144.74;100.00;63161.41;4966906;28;20027;-71
2023/12/22 09:25:50;;;;;;;23.20;3.17;;;;;;;-144.74;100.00;63161.41;4967205;28;20062;-72
2023/12/22 09:28:15;;;;;;;40.85;4.93;;;;;;;-144.74;100.00;63161.41;4958282;28;20081;-73
2023/12/22 09:30:41;;;;;;;33.22;3.67;;;;;;;-144.74;100.00;63161.41;4963670;28;20038;-72
2023/12/22 09:33:08;;;;;;;33.85;6.05;;;;;;;-144.74;100.00;63161.41;4964642;28;20019;-72
2023/12/22 09:35:34;;;;;;;20.38;3.90;;;;;;;-144.74;100.00;63161.41;4964305;28;20045;-72
2023/12/22 09:37:59;;;;;;;31.02;4.13;;;;;;;-144.74;100.00;63161.41;4961789;28;20023;-72
2023/12/22 09:40:24;;;;;;;21.08;2.88;;;;;;;-144.74;100.00;63161.41;4957848;28;20085;-73
2023/12/22 09:42:53;;;;;;;21.60;3.28;;;;;;;-144.74;100.00;63161.41;4957477;28;20482;-71
2023/12/22 09:45:20;;;;;;;29.00;3.35;;;;;;;-144.74;100.00;63161.41;4956679;28;20033;-72
2023/12/22 09:47:48;;;;;;;24.27;3.72;;;;;;;-144.74;100.00;63161.41;4962351;28;20030;-72
2023/12/22 09:50:15;;;;;;;25.70;3.08;;;;;;;-144.74;100.00;63161.41;4960422;28;20031;-72
2023/12/22 09:52:46;;;;;;;23.20;4.25;;;;;;;-144.74;100.00;63161.41;4964175;28;20025;-72
2023/12/22 09:55:13;;;;;;;30.10;4.47;;;;;;;-144.74;100.00;63161.41;4957590;28;20031;-72
2023/12/22 09:57:39;;;;;;;34.55;4.10;;;;;;;-144.74;100.00;63161.41;4969309;28;20482;-72
2023/12/22 10:00:09;;;;;;;40.58;4.32;;;;;;;-144.74;100.00;63161.41;4964720;28;20031;-72
2023/12/22 10:02:36;;;;;;;26.95;5.93;;;;;;;-144.74;100.00;63161.41;4964702;28;20023;-72
2023/12/22 10:05:02;;;;;;;26.60;5.32;;;;;;;-144.74;100.00;63161.41;4963336;28;20129;-71
2023/12/22 10:07:28;;;;;;;22.08;4.05;;;;;;;-144.74;100.00;63161.41;4957191;28;20166;-71
2023/12/22 10:09:56;;;;;;;37.83;5.80;;;;;;;-144.74;100.00;63161.41;4954129;28;20039;-71
2023/12/22 10:12:21;;;;;;;41.55;5.15;;;;;;;-144.74;100.00;63161.41;4964374;28;20034;-71
2023/12/22 10:14:47;;;;;;;38.53;6.20;;;;;;;-144.74;100.00;63161.41;4958661;28;20039;-72
2023/12/22 10:17:14;;;;;;;42.88;5.50;;;;;;;-144.74;100.00;63161.41;4965411;28;20023;-71
2023/12/22 10:19:40;;;;;;;36.50;5.20;;;;;;;-144.74;100.00;63161.41;4966723;28;20039;-72
2023/12/22 10:22:09;;;;;;;44.83;5.68;;;;;;;-144.74;100.00;63161.41;4956772;28;20093;-72
2023/12/22 10:24:50;;;;;;;41.00;6.47;;;;;;;-144.74;100.00;63161.41;4961708;28;20032;-72
2023/12/22 10:27:23;;;;;;;46.72;7.30;;;;;;;-144.74;100.00;63161.41;4967923;28;20148;-71
2023/12/22 10:29:56;;;;;;;36.42;5.45;;;;;;;-144.74;100.00;63161.41;4962248;28;20399;-71
2023/12/22 10:32:22;;;;;;;45.50;7.65;;;;;;;-144.74;100.00;63161.41;4955423;28;20015;-71
2023/12/22 10:34:48;;;;;;;42.90;7.05;;;;;;;-144.74;100.00;63161.41;4973425;28;20126;-72
2023/12/22 10:37:14;;;;;;;41.42;5.18;;;;;;;-144.74;100.00;63161.41;4963047;28;20042;-71
2023/12/22 10:39:40;;;;;;;28.10;4.68;;;;;;;-144.74;100.00;63161.41;4966955;28;20122;-71
2023/12/22 10:42:06;;;;;;;55.45;7.28;;;;;;;-144.74;100.00;63161.41;4964281;28;20019;-71
2023/12/22 10:44:31;;;;;;;32.35;5.90;;;;;;;-144.74;100.00;63161.41;4961438;28;20028;-71
2023/12/22 10:46:57;;;;;;;45.65;5.47;;;;;;;-144.74;100.00;63161.41;4954860;28;20023;-71
2023/12/22 10:49:24;;;;;;;49.67;4.93;;;;;;;-144.74;100.00;63161.41;4965181;28;20047;-72
2023/12/22 10:51:51;;;;;;;37.47;6.75;;;;;;;-144.74;100.00;63161.41;4964005;28;20023;-72
2023/12/22 10:54:17;;;;;;;42.03;6.57;;;;;;;-144.74;100.00;63161.41;4957483;28;20114;-71
2023/12/22 10:56:43;;;;;;;42.85;5.28;;;;;;;-144.74;100.00;63161.41;4961195;28;20027;-71
2023/12/22 10:59:09;;;;;;;49.72;6.97;;;;;;;-144.74;100.00;63161.41;4956639;28;20102;-70